createdAt,value
2022-09-06T00:00:11.808Z,16.60
2022-09-06T00:02:40.261Z,16.60
2022-09-06T00:05:12.274Z,16.60
2022-09-06T00:07:41.112Z,16.50
2022-09-06T00:10:10.866Z,16.60
2022-09-06T00:12:40.117Z,16.70
2022-09-06T00:15:09.581Z,16.60
2022-09-06T00:17:38.002Z,16.60
2022-09-06T00:20:11.454Z,16.40
2022-09-06T00:22:42.700Z,16.30
2022-09-06T00:25:12.120Z,16.40
2022-09-06T00:27:41.628Z,16.30
2022-09-06T00:30:12.689Z,16.30
2022-09-06T00:32:41.275Z,16.30
2022-09-06T00:35:09.751Z,16.20
2022-09-06T00:37:38.346Z,16.20
2022-09-06T00:40:09.897Z,16.20
2022-09-06T00:42:38.405Z,16.30
2022-09-06T00:45:08.535Z,16.20
2022-09-06T00:47:39.559Z,16.00
2022-09-06T00:50:09.124Z,16.00
2022-09-06T00:52:39.911Z,16.00
2022-09-06T00:55:10.765Z,15.90
2022-09-06T00:57:40.079Z,16.00
2022-09-06T01:00:10.199Z,16.00
2022-09-06T01:02:38.738Z,15.90
2022-09-06T01:05:08.337Z,16.00
2022-09-06T01:07:59.985Z,16.00
2022-09-06T01:10:44.649Z,16.00
2022-09-06T01:13:26.056Z,16.00
2022-09-06T01:16:00.235Z,16.10
2022-09-06T01:18:40.365Z,16.10
2022-09-06T01:21:22.503Z,16.10
2022-09-06T01:24:15.627Z,16.10
2022-09-06T01:27:29.362Z,16.00
2022-09-06T01:30:03.329Z,16.00
2022-09-06T01:32:38.765Z,15.80
2022-09-06T01:35:18.822Z,15.80
2022-09-06T01:37:48.296Z,15.80
2022-09-06T01:40:16.707Z,15.80
2022-09-06T01:42:48.833Z,15.80
2022-09-06T01:45:20.825Z,15.70
2022-09-06T01:48:00.282Z,15.80
2022-09-06T01:50:49.170Z,15.80
2022-09-06T01:53:37.361Z,15.80
2022-09-06T01:56:09.998Z,15.70
2022-09-06T01:58:55.356Z,15.70
2022-09-06T02:01:29.755Z,15.70
2022-09-06T02:04:03.113Z,15.80
2022-09-06T02:06:38.599Z,15.70
2022-09-06T02:09:10.623Z,15.80
2022-09-06T02:11:43.787Z,15.80
2022-09-06T02:14:17.193Z,15.80
2022-09-06T02:16:49.374Z,15.80
2022-09-06T02:19:23.232Z,15.70
2022-09-06T02:21:54.362Z,15.70
2022-09-06T02:24:26.858Z,15.70
2022-09-06T02:26:55.518Z,15.80
2022-09-06T02:29:25.582Z,15.80
2022-09-06T02:31:57.673Z,15.80
2022-09-06T02:34:26.099Z,15.80
2022-09-06T02:36:55.436Z,15.80
2022-09-06T02:39:25.180Z,15.80
2022-09-06T02:41:53.800Z,15.70
2022-09-06T02:44:22.065Z,15.70
2022-09-06T02:46:56.831Z,15.70
2022-09-06T02:49:25.669Z,15.70
2022-09-06T02:51:54.182Z,15.70
2022-09-06T02:54:22.598Z,15.70
2022-09-06T02:56:52.467Z,15.70
2022-09-06T02:59:21.186Z,15.70
2022-09-06T03:01:52.178Z,15.70
2022-09-06T03:04:21.672Z,15.60
2022-09-06T03:06:50.092Z,15.50
2022-09-06T03:09:19.642Z,15.40
2022-09-06T03:11:49.493Z,15.30
2022-09-06T03:14:19.571Z,15.30
2022-09-06T03:16:49.095Z,15.30
2022-09-06T03:19:20.506Z,15.30
2022-09-06T03:21:49.880Z,15.20
2022-09-06T03:24:19.575Z,15.30
2022-09-06T03:26:48.737Z,15.30
2022-09-06T03:29:17.682Z,15.30
2022-09-06T03:31:48.977Z,15.30
2022-09-06T03:34:19.773Z,15.40
2022-09-06T03:39:53.515Z,15.30
2022-09-06T03:42:30.140Z,15.40
2022-09-06T03:44:59.508Z,15.30
2022-09-06T03:47:29.053Z,15.30
2022-09-06T03:53:28.686Z,14.70
2022-09-06T03:55:59.051Z,14.60
2022-09-06T03:58:31.015Z,14.90
2022-09-06T04:01:09.430Z,15.20
2022-09-06T04:03:40.332Z,15.30
2022-09-06T04:06:11.746Z,15.30
2022-09-06T04:08:43.936Z,15.20
2022-09-06T04:11:14.014Z,15.40
2022-09-06T04:13:42.321Z,15.50
2022-09-06T04:16:12.141Z,15.40
2022-09-06T04:18:50.693Z,15.50
2022-09-06T04:21:27.812Z,15.60
2022-09-06T04:23:57.406Z,15.60
2022-09-06T04:26:26.181Z,15.70
2022-09-06T04:28:54.487Z,15.70
2022-09-06T04:31:24.632Z,15.70
2022-09-06T04:33:54.627Z,15.80
2022-09-06T04:40:25.902Z,15.90
2022-09-06T04:43:01.208Z,16.00
2022-09-06T04:45:31.069Z,16.00
2022-09-06T04:48:17.280Z,16.00
2022-09-06T04:50:47.181Z,16.10
2022-09-06T04:53:19.609Z,16.10
2022-09-06T04:56:10.356Z,16.10
2022-09-06T04:58:40.623Z,16.20
2022-09-06T05:01:08.996Z,16.20
2022-09-06T05:03:37.421Z,16.20
2022-09-06T05:06:08.767Z,16.20
2022-09-06T05:08:39.782Z,16.10
2022-09-06T05:11:13.100Z,16.20
2022-09-06T05:14:45.438Z,16.20
2022-09-06T05:17:42.970Z,16.20
2022-09-06T05:20:44.311Z,16.40
2022-09-06T05:23:29.303Z,16.50
2022-09-06T05:26:08.833Z,16.60
2022-09-06T05:32:24.335Z,16.80
2022-09-06T05:46:59.520Z,17.00
2022-09-06T05:52:54.424Z,17.20
2022-09-06T05:55:34.524Z,17.20
2022-09-06T05:58:15.824Z,17.20
2022-09-06T06:00:55.817Z,17.30
2022-09-06T06:06:17.409Z,17.40
2022-09-06T06:12:45.637Z,17.60
2022-09-06T06:15:29.111Z,17.70
2022-09-06T06:26:40.779Z,17.80
2022-09-06T06:29:10.972Z,17.90
2022-09-06T06:31:44.768Z,17.90
2022-09-06T06:38:03.924Z,17.90
2022-09-06T06:41:06.992Z,17.90
2022-09-06T06:44:25.198Z,18.00
2022-09-06T06:46:58.868Z,18.10
2022-09-06T06:49:28.815Z,18.10
2022-09-06T06:52:01.933Z,18.20
2022-09-06T06:54:34.279Z,18.30
2022-09-06T06:57:55.163Z,18.40
2022-09-06T07:00:38.702Z,18.50
2022-09-06T07:03:17.182Z,18.60
2022-09-06T07:06:11.795Z,18.60
2022-09-06T07:08:52.136Z,18.70
2022-09-06T07:11:24.931Z,18.60
2022-09-06T07:14:11.139Z,18.70
2022-09-06T07:17:07.446Z,18.80
2022-09-06T07:20:15.492Z,18.70
2022-09-06T07:28:43.547Z,18.80
2022-09-06T07:33:46.057Z,19.20
2022-09-06T07:38:51.774Z,19.50
2022-09-06T07:41:20.675Z,19.50
2022-09-06T07:43:49.022Z,20.20
2022-09-06T07:46:32.345Z,20.20
2022-09-06T07:49:08.234Z,20.20
2022-09-06T07:51:37.896Z,20.30
2022-09-06T07:54:29.338Z,20.30
2022-09-06T07:56:56.750Z,21.20
2022-09-06T07:59:25.125Z,24.20
2022-09-06T08:01:53.502Z,25.10
2022-09-06T08:26:33.991Z,27.10
2022-09-06T08:29:06.273Z,23.70
2022-09-06T08:34:40.760Z,25.10
2022-09-06T08:37:11.650Z,27.20
2022-09-06T08:53:20.640Z,28.00
2022-09-06T08:56:01.235Z,30.70
2022-09-06T08:58:46.382Z,28.90
2022-09-06T09:01:24.749Z,28.70
2022-09-06T09:04:17.040Z,30.50
2022-09-06T09:06:53.562Z,30.30
2022-09-06T09:10:05.927Z,29.50
2022-09-06T09:12:55.027Z,30.60
2022-09-06T09:15:25.148Z,27.50
2022-09-06T09:17:55.598Z,26.10
2022-09-06T09:20:27.024Z,24.90
2022-09-06T09:23:06.459Z,24.80
2022-09-06T09:29:36.241Z,24.40
2022-09-06T09:36:09.457Z,24.70
2022-09-06T09:39:34.518Z,24.40
2022-09-06T09:42:07.434Z,24.80
2022-09-06T09:44:53.917Z,25.00
2022-09-06T09:47:51.263Z,24.80
2022-09-06T09:50:32.690Z,24.90
2022-09-06T09:53:17.854Z,24.80
2022-09-06T09:56:15.226Z,25.10
2022-09-06T09:58:44.785Z,24.90
2022-09-06T10:01:34.394Z,25.10
2022-09-06T10:07:17.112Z,25.30
2022-09-06T10:13:47.430Z,25.10
2022-09-06T10:16:51.842Z,25.30
2022-09-06T10:19:44.164Z,25.20
2022-09-06T10:22:36.992Z,25.40
2022-09-06T10:25:53.158Z,25.60
2022-09-06T10:32:23.635Z,26.00
2022-09-06T10:35:48.940Z,26.00
2022-09-06T10:39:04.090Z,25.80
2022-09-06T10:41:50.994Z,25.90
2022-09-06T10:44:41.291Z,26.20
2022-09-06T10:47:14.954Z,25.90
2022-09-06T10:49:48.835Z,25.70
2022-09-06T10:55:49.943Z,26.00
2022-09-06T10:58:28.734Z,25.80
2022-09-06T11:01:10.005Z,26.20
2022-09-06T11:06:45.959Z,26.80
2022-09-06T11:09:24.287Z,26.70
2022-09-06T11:12:19.914Z,26.90
2022-09-06T11:15:27.115Z,26.80
2022-09-06T11:18:11.994Z,26.70
2022-09-06T11:21:11.196Z,27.40
2022-09-06T11:24:03.379Z,27.40
2022-09-06T11:27:33.120Z,26.90
2022-09-06T11:30:13.387Z,27.20
2022-09-06T11:32:53.848Z,27.40
2022-09-06T11:35:28.464Z,27.80
2022-09-06T11:41:44.048Z,27.40
2022-09-06T11:48:44.252Z,28.10
2022-09-06T11:51:33.936Z,27.80
2022-09-06T11:54:20.861Z,27.40
2022-09-06T11:56:57.405Z,27.10
2022-09-06T11:59:38.412Z,27.10
2022-09-06T12:02:08.726Z,27.10
2022-09-06T12:05:26.746Z,27.00
2022-09-06T12:08:35.497Z,27.20
2022-09-06T12:15:22.031Z,27.90
2022-09-06T12:18:23.802Z,27.70
2022-09-06T12:21:13.889Z,27.50
2022-09-06T12:23:48.599Z,28.30
2022-09-06T12:36:18.451Z,28.10
2022-09-06T12:48:35.492Z,28.70
2022-09-06T12:54:58.314Z,28.40
2022-09-06T12:57:48.749Z,28.60
2022-09-06T13:00:18.138Z,28.50
2022-09-06T13:06:02.532Z,28.60
2022-09-06T13:09:10.142Z,28.30
2022-09-06T13:13:03.930Z,27.90
2022-09-06T13:22:39.403Z,28.40
2022-09-06T13:25:47.632Z,28.60
2022-09-06T13:28:42.945Z,28.70
2022-09-06T13:31:39.893Z,28.80
2022-09-06T13:34:12.046Z,28.90
2022-09-06T13:37:04.224Z,28.40
2022-09-06T13:39:53.201Z,28.50
2022-09-06T13:43:04.713Z,28.70
2022-09-06T13:45:59.089Z,28.70
2022-09-06T13:48:53.576Z,28.60
2022-09-06T13:51:40.343Z,28.90
2022-09-06T13:54:46.960Z,29.00
2022-09-06T13:57:45.616Z,29.60
2022-09-06T14:00:20.672Z,29.90
2022-09-06T14:03:15.857Z,30.10
2022-09-06T14:05:51.093Z,29.50
2022-09-06T14:09:02.919Z,28.80
2022-09-06T14:11:56.057Z,29.00
2022-09-06T14:14:36.163Z,29.20
2022-09-06T14:17:05.239Z,29.00
2022-09-06T14:20:07.708Z,29.20
2022-09-06T14:26:22.335Z,29.40
2022-09-06T14:28:57.137Z,29.20
2022-09-06T14:31:30.973Z,28.90
2022-09-06T14:37:20.426Z,28.80
2022-09-06T14:43:08.965Z,28.70
2022-09-06T14:45:53.448Z,28.80
2022-09-06T14:49:04.059Z,28.80
2022-09-06T14:51:39.613Z,28.90
2022-09-06T14:54:15.833Z,28.90
2022-09-06T14:56:55.333Z,28.80
2022-09-06T14:59:26.555Z,28.90
2022-09-06T15:02:26.560Z,29.20
2022-09-06T15:05:08.527Z,29.10
2022-09-06T15:07:49.872Z,28.90
2022-09-06T15:10:28.708Z,28.80
2022-09-06T15:13:27.459Z,28.90
2022-09-06T15:16:52.052Z,29.10
2022-09-06T15:19:45.691Z,29.30
2022-09-06T15:22:43.792Z,29.10
2022-09-06T15:25:43.059Z,28.90
2022-09-06T15:28:20.016Z,28.80
2022-09-06T15:31:16.582Z,28.90
2022-09-06T15:34:06.205Z,28.70
2022-09-06T15:37:32.429Z,28.80
2022-09-06T15:40:33.660Z,28.90
2022-09-06T15:44:32.390Z,28.90
2022-09-06T15:47:23.437Z,28.50
2022-09-06T15:49:56.054Z,28.40
2022-09-06T15:52:25.745Z,28.20
2022-09-06T15:55:23.289Z,28.00
2022-09-06T15:58:04.746Z,27.80
2022-09-06T16:00:42.241Z,27.70
2022-09-06T16:03:17.688Z,27.60
2022-09-06T16:09:38.032Z,27.40
2022-09-06T16:12:11.689Z,27.40
2022-09-06T16:14:51.216Z,27.30
2022-09-06T16:17:42.915Z,27.30
2022-09-06T16:26:53.656Z,27.00
2022-09-06T16:29:57.732Z,26.90
2022-09-06T16:32:29.148Z,26.80
2022-09-06T16:35:02.773Z,26.70
2022-09-06T16:40:47.248Z,26.70
2022-09-06T16:46:14.584Z,26.60
2022-09-06T16:48:57.962Z,26.60
2022-09-06T16:58:35.727Z,26.50
2022-09-06T17:01:13.397Z,26.40
2022-09-06T17:03:42.311Z,26.20
2022-09-06T17:06:21.652Z,26.00
2022-09-06T17:09:24.685Z,25.90
2022-09-06T17:16:13.846Z,25.80
2022-09-06T17:19:05.726Z,25.70
2022-09-06T17:27:57.786Z,25.40
2022-09-06T17:30:53.906Z,25.40
2022-09-06T17:33:28.073Z,25.30
2022-09-06T17:43:04.577Z,25.20
2022-09-06T17:48:57.166Z,25.00
2022-09-06T17:51:33.072Z,25.10
2022-09-06T18:00:48.487Z,25.00
2022-09-06T18:03:20.300Z,24.80
2022-09-06T18:05:49.223Z,24.70
2022-09-06T18:08:29.276Z,24.50
2022-09-06T18:11:16.868Z,24.40
2022-09-06T18:13:55.955Z,24.30
2022-09-06T18:16:29.644Z,24.20
2022-09-06T18:19:03.654Z,24.20
2022-09-06T18:21:35.693Z,24.20
2022-09-06T18:24:23.615Z,24.20
2022-09-06T18:27:48.422Z,24.10
2022-09-06T18:36:32.025Z,24.00
2022-09-06T18:39:20.171Z,23.80
2022-09-06T18:42:29.674Z,23.70
2022-09-06T18:45:54.236Z,23.60
2022-09-06T18:49:02.990Z,23.50
2022-09-06T18:51:38.942Z,23.40
2022-09-06T18:57:03.798Z,23.30
2022-09-06T18:59:43.733Z,23.30
2022-09-06T19:02:15.761Z,23.20
2022-09-06T19:04:56.611Z,23.10
2022-09-06T19:07:30.808Z,23.00
2022-09-06T19:09:59.439Z,22.90
2022-09-06T19:12:53.356Z,22.80
2022-09-06T19:15:55.055Z,22.80
2022-09-06T19:18:26.476Z,22.70
2022-09-06T19:21:28.773Z,22.60
2022-09-06T19:24:02.960Z,22.50
2022-09-06T19:26:41.999Z,22.30
2022-09-06T19:29:16.466Z,22.30
2022-09-06T19:31:52.450Z,22.30
2022-09-06T19:34:54.408Z,22.20
2022-09-06T19:37:57.199Z,22.10
2022-09-06T19:40:28.813Z,22.00
2022-09-06T19:43:02.767Z,22.00
2022-09-06T19:45:59.424Z,22.00
2022-09-06T19:48:35.600Z,22.00
2022-09-06T19:51:05.715Z,21.90
2022-09-06T19:53:45.413Z,21.90
2022-09-06T19:56:20.794Z,21.80
2022-09-06T19:58:57.652Z,21.70
2022-09-06T20:01:41.832Z,21.70
2022-09-06T20:07:28.210Z,21.80
2022-09-06T20:10:00.812Z,21.70
2022-09-06T20:12:34.101Z,21.60
2022-09-06T20:15:04.782Z,21.60
2022-09-06T20:17:34.907Z,21.60
2022-09-06T20:20:17.519Z,21.60
2022-09-06T20:22:47.914Z,21.50
2022-09-06T20:25:20.165Z,21.40
2022-09-06T20:27:51.022Z,21.30
2022-09-06T20:30:23.976Z,21.20
2022-09-06T20:32:52.505Z,21.10
2022-09-06T20:35:21.937Z,21.00
2022-09-06T20:37:59.742Z,20.90
2022-09-06T20:40:32.515Z,20.90
2022-09-06T20:43:02.282Z,20.90
2022-09-06T20:45:33.464Z,20.90
2022-09-06T20:48:02.978Z,20.80
2022-09-06T20:50:33.856Z,20.80
2022-09-06T20:53:02.426Z,20.80
2022-09-06T20:55:32.684Z,20.70
2022-09-06T20:58:01.153Z,20.70
2022-09-06T21:00:29.687Z,20.70
2022-09-06T21:03:04.992Z,20.60
2022-09-06T21:05:40.868Z,20.60
2022-09-06T21:08:13.004Z,20.50
2022-09-06T21:10:44.587Z,20.50
2022-09-06T21:13:13.527Z,20.40
2022-09-06T21:15:46.766Z,20.50
2022-09-06T21:18:15.384Z,20.40
2022-09-06T21:20:53.682Z,20.40
2022-09-06T21:23:29.866Z,20.40
2022-09-06T21:26:20.449Z,20.30
2022-09-06T21:29:06.421Z,20.30
2022-09-06T21:31:43.647Z,20.30
2022-09-06T21:34:17.317Z,20.20
2022-09-06T21:36:46.841Z,20.10
2022-09-06T21:39:16.985Z,20.20
2022-09-06T21:41:47.979Z,20.20
2022-09-06T21:44:21.315Z,20.20
2022-09-06T21:46:50.870Z,20.10
2022-09-06T21:49:19.487Z,20.10
2022-09-06T21:51:47.894Z,20.10
2022-09-06T21:54:27.429Z,20.10
2022-09-06T21:56:59.336Z,20.00
2022-09-06T21:59:27.781Z,20.00
2022-09-06T22:01:57.037Z,19.90
2022-09-06T22:04:26.420Z,19.80
2022-09-06T22:06:54.942Z,19.80
2022-09-06T22:09:23.425Z,19.70
2022-09-06T22:11:56.447Z,19.50
2022-09-06T22:14:27.530Z,19.50
2022-09-06T22:16:58.408Z,19.50
2022-09-06T22:19:26.913Z,19.30
2022-09-06T22:21:55.756Z,19.30
2022-09-06T22:24:24.170Z,19.30
2022-09-06T22:26:52.798Z,19.30
2022-09-06T22:29:23.412Z,19.30
2022-09-06T22:31:58.894Z,19.30
2022-09-06T22:34:29.048Z,19.20
2022-09-06T22:36:57.656Z,19.20
2022-09-06T22:39:26.089Z,19.20
2022-09-06T22:41:54.974Z,19.20
2022-09-06T22:44:27.338Z,19.20
2022-09-06T22:46:59.475Z,19.20
2022-09-06T22:52:28.807Z,19.20
2022-09-06T22:55:00.064Z,19.20
2022-09-06T22:57:30.818Z,19.10
2022-09-06T23:00:03.647Z,19.00
2022-09-06T23:02:40.897Z,19.00
2022-09-06T23:05:15.909Z,18.90
2022-09-06T23:07:50.610Z,18.90
2022-09-06T23:10:30.440Z,18.90
2022-09-06T23:13:02.313Z,18.90
2022-09-06T23:15:34.115Z,18.90
2022-09-06T23:18:04.040Z,18.90
2022-09-06T23:20:33.471Z,19.00
2022-09-06T23:23:02.363Z,19.00
2022-09-06T23:25:30.855Z,18.90
2022-09-06T23:28:00.827Z,18.90
2022-09-06T23:30:30.752Z,18.90
2022-09-06T23:33:02.687Z,18.80
2022-09-06T23:35:39.453Z,18.80
2022-09-06T23:38:07.970Z,18.80
2022-09-06T23:40:36.337Z,18.70
2022-09-06T23:43:07.159Z,18.70
2022-09-06T23:45:36.079Z,18.70
2022-09-06T23:48:05.194Z,18.70
2022-09-06T23:50:43.647Z,18.70
2022-09-06T23:53:12.688Z,18.70
2022-09-06T23:55:42.428Z,18.70
2022-09-06T23:58:16.828Z,18.70
